Time;durP1;ratioP1;P1;durP2;ratioP2;P2;SDS_P1;SDS_P2;PMS_P1;PMS_P2;Temp;Humidity;BMP_temperature;BMP_pressure;BME280_temperature;BME280_humidity;BME280_pressure;Samples;Min_cycle;Max_cycle;Signal;HPM_P1;HPM_P2
2023/07/02 00:04:57;;;;;;;;;;;;;;;;;;;;;
2023/07/02 00:15:12;;;;;;;;;;;;;;;;;;;;;
2023/07/02 00:18:44;;;;;;;;;;;;;;;;;;;;;
2023/07/02 00:22:05;;;;;;;;;;;;;;;;;;;;;
2023/07/02 00:25:28;;;;;;;;;;;;;;;;;;;;;
2023/07/02 00:28:14;;;;;;;1.60;1.15;;;;;;;-145.06;0.00;60892.56;5928582;23;20009;-92
2023/07/02 00:31:02;;;;;;;2.22;1.48;;;;;;;-145.06;0.00;60892.56;5889165;23;20010;-92
2023/07/02 00:33:48;;;;;;;2.50;1.38;;;;;;;-145.06;0.00;60892.56;5888708;23;20010;-91
2023/07/02 00:36:43;;;;;;;2.35;1.40;;;;;;;-145.06;0.00;60892.56;5890628;23;20006;-92
2023/07/02 00:39:38;;;;;;;;;;;;;;;;;;;;;
2023/07/02 00:42:43;;;;;;;2.95;1.48;;;;;;;-145.06;0.00;60892.56;5899781;23;20002;-91
2023/07/02 00:45:39;;;;;;;3.13;1.85;;;;;;;-145.06;0.00;60892.56;5889822;23;20003;-91
2023/07/02 00:48:23;;;;;;;2.45;1.40;;;;;;;-145.06;0.00;60892.56;5889408;23;20244;-92
2023/07/02 00:54:16;;;;;;;;;;;;;;;;;;;;;
2023/07/02 00:57:03;;;;;;;4.05;2.17;;;;;;;-145.06;0.00;60892.56;5871377;23;20003;-91
2023/07/02 00:59:52;;;;;;;3.25;2.03;;;;;;;-145.06;0.00;60892.56;5861107;23;20011;-92
2023/07/02 01:02:39;;;;;;;3.13;1.85;;;;;;;-145.06;0.00;60892.56;5880328;23;20011;-91
2023/07/02 01:05:21;;;;;;;3.28;1.70;;;;;;;-145.06;0.00;60892.56;5858752;23;20015;-92
2023/07/02 01:08:11;;;;;;;3.15;1.92;;;;;;;-145.06;0.00;60892.56;5860862;23;20010;-92
2023/07/02 01:10:53;;;;;;;4.40;2.55;;;;;;;-145.06;0.00;60892.56;5860850;23;20006;-92
2023/07/02 01:13:37;;;;;;;3.67;2.33;;;;;;;17.05;0.00;60892.56;5860290;23;20007;-90
2023/07/02 01:16:20;;;;;;;4.72;2.50;;;;;;;17.18;0.00;60892.56;5859897;23;20011;-91
2023/07/02 01:19:03;;;;;;;3.42;2.38;;;;;;;16.99;0.00;60892.56;5860106;23;20011;-91
2023/07/02 01:21:47;;;;;;;5.05;2.60;;;;;;;16.98;0.00;60892.56;5859844;23;20422;-93
2023/07/02 01:24:29;;;;;;;5.75;2.80;;;;;;;-145.06;0.00;60892.56;5860521;23;20003;-92
2023/07/02 01:27:10;;;;;;;4.30;2.60;;;;;;;-145.06;0.00;60892.56;5859942;23;20011;-92
2023/07/02 01:29:52;;;;;;;;;;;;;;;16.89;0.00;60892.56;5860208;23;20023;-91
2023/07/02 01:32:31;;;;;;;4.10;2.63;;;;;;;16.87;0.00;60892.56;5859957;23;19909;-91
2023/07/02 01:35:12;;;;;;;4.72;2.70;;;;;;;16.85;0.00;60892.56;5859560;23;20007;-92
2023/07/02 01:37:55;;;;;;;5.35;3.00;;;;;;;-145.06;0.00;60892.56;5860139;23;20002;-91
2023/07/02 01:40:36;;;;;;;5.30;3.25;;;;;;;-145.06;0.00;60892.56;5860121;23;20002;-92
2023/07/02 01:43:18;;;;;;;5.55;3.38;;;;;;;-145.06;0.00;60892.56;5859394;23;20316;-91
2023/07/02 01:45:57;;;;;;;6.85;3.28;;;;;;;-145.06;0.00;60892.56;5861185;23;20003;-90
2023/07/02 01:48:36;;;;;;;6.13;3.50;;;;;;;-145.06;0.00;60892.56;5862297;23;20316;-92
2023/07/02 01:51:18;;;;;;;5.60;3.08;;;;;;;21.08;0.00;60892.56;5861273;23;20011;-93
2023/07/02 01:53:57;;;;;;;5.53;2.80;;;;;;;16.79;0.00;60892.56;5861594;23;20078;-92
2023/07/02 01:56:39;;;;;;;5.30;3.00;;;;;;;-145.06;0.00;60892.56;5861959;23;20007;-91
2023/07/02 01:59:18;;;;;;;5.82;3.50;;;;;;;-145.06;0.00;60892.56;5861850;23;20482;-90
2023/07/02 02:01:57;;;;;;;5.40;3.10;;;;;;;-145.06;0.00;60892.56;5861416;23;20007;-91
2023/07/02 02:04:36;;;;;;;5.22;3.20;;;;;;;-145.06;0.00;60892.56;5860966;23;20438;-91
2023/07/02 02:07:15;;;;;;;8.50;3.40;;;;;;;-145.06;0.00;60892.56;5872922;23;20011;-91
2023/07/02 02:09:54;;;;;;;5.57;3.33;;;;;;;-145.06;0.00;60892.56;5861946;23;20430;-92
2023/07/02 02:12:36;;;;;;;4.90;2.90;;;;;;;-145.06;0.00;60892.56;5861652;23;20312;-91
2023/07/02 02:15:17;;;;;;;8.50;3.22;;;;;;;-145.06;0.00;60892.56;5882105;23;20007;-91
2023/07/02 02:17:57;;;;;;;4.78;3.30;;;;;;;-145.06;0.00;60892.56;5861125;23;20037;-91
2023/07/02 02:20:38;;;;;;;7.18;3.75;;;;;;;-145.06;0.00;60892.56;5861173;23;20453;-90
2023/07/02 02:23:19;;;;;;;4.68;3.30;;;;;;;17.18;0.00;60892.56;5861894;23;20011;-91
2023/07/02 02:26:03;;;;;;;7.20;3.90;;;;;;;-145.06;0.00;60892.56;5861161;23;20007;-93
2023/07/02 02:28:43;;;;;;;7.38;4.00;;;;;;;-145.06;0.00;60892.56;5861580;23;20034;-91
2023/07/02 02:31:22;;;;;;;6.57;3.28;;;;;;;-145.06;0.00;60892.56;5840966;23;20097;-91
2023/07/02 02:34:01;;;;;;;7.45;4.05;;;;;;;-145.06;0.00;60892.56;5840761;23;20315;-92
2023/07/02 02:36:43;;;;;;;8.40;4.70;;;;;;;-145.06;0.00;60892.56;5841500;23;20015;-92
2023/07/02 02:39:22;;;;;;;5.55;3.50;;;;;;;-145.06;0.00;60892.56;5861009;23;20003;-91
2023/07/02 02:42:03;;;;;;;5.97;3.72;;;;;;;-145.06;0.00;60892.56;5840872;23;20006;-92
2023/07/02 02:44:43;;;;;;;6.78;4.05;;;;;;;-145.06;0.00;60892.56;5861891;23;20399;-91
2023/07/02 02:47:22;;;;;;;6.90;4.10;;;;;;;-145.06;0.00;60892.56;5840840;23;20011;-91
2023/07/02 02:50:00;;;;;;;6.47;3.80;;;;;;;-145.06;0.00;60892.56;5840733;23;20011;-90
2023/07/02 02:52:40;;;;;;;6.33;3.70;;;;;;;-145.06;0.00;60892.56;5840819;23;20442;-92
2023/07/02 02:55:21;;;;;;;8.40;4.25;;;;;;;-145.06;0.00;60892.56;5860947;23;20454;-90
2023/07/02 02:58:00;;;;;;;6.32;3.55;;;;;;;-145.06;0.00;60892.56;5840739;23;20010;-92
2023/07/02 03:00:42;;;;;;;6.47;3.85;;;;;;;-145.06;0.00;60892.56;5840009;23;20339;-92
2023/07/02 03:03:34;;;;;;;;;;;;;;;;;;;;;
2023/07/02 03:06:15;;;;;;;7.90;4.57;;;;;;;-145.06;0.00;60892.56;5872164;23;20311;-92
2023/07/02 03:08:56;;;;;;;7.15;4.40;;;;;;;-145.06;0.00;60892.56;5841214;23;20014;-92
2023/07/02 03:11:38;;;;;;;7.25;4.78;;;;;;;-145.06;0.00;60892.56;5842109;23;20007;-90
2023/07/02 03:14:17;;;;;;;7.18;4.40;;;;;;;-145.06;0.00;60892.56;5846421;23;20015;-91
2023/07/02 03:17:06;;;;;;;6.82;4.55;;;;;;;-145.06;0.00;60892.56;5863012;23;20002;-92
2023/07/02 03:19:48;;;;;;;7.03;4.22;;;;;;;-145.06;0.00;60892.56;5871749;23;20015;-91
2023/07/02 03:22:32;;;;;;;8.38;5.15;;;;;;;-145.06;0.00;60892.56;5842193;23;20026;-91
2023/07/02 03:25:14;;;;;;;8.48;4.72;;;;;;;-145.06;0.00;60892.56;5841808;23;20007;-92
2023/07/02 03:27:55;;;;;;;8.25;4.40;;;;;;;-145.06;0.00;60892.56;5862381;23;20086;-92
2023/07/02 03:30:42;;;;;;;7.15;4.63;;;;;;;-145.06;0.00;60892.56;5852917;23;20006;-91
2023/07/02 03:33:29;;;;;;;7.05;4.72;;;;;;;-145.06;0.00;60892.56;5883071;23;20422;-92
2023/07/02 03:36:08;;;;;;;9.35;4.63;;;;;;;-145.06;0.00;60892.56;5862660;23;20007;-93
2023/07/02 03:38:47;;;;;;;7.87;5.10;;;;;;;-145.06;0.00;60892.56;5862419;23;20007;-92
2023/07/02 03:41:49;;;;;;;6.83;4.27;;;;;;;-145.06;0.00;60892.56;5862398;23;20243;-92
2023/07/02 03:44:28;;;;;;;10.85;5.40;;;;;;;-145.06;0.00;60892.56;5862482;23;20295;-92
2023/07/02 03:47:12;;;;;;;9.67;5.53;;;;;;;-145.06;0.00;60892.56;5861676;23;20335;-92
2023/07/02 03:50:04;;;;;;;8.60;5.13;;;;;;;-145.06;0.00;60892.56;5870608;23;20722;-91
2023/07/02 03:52:48;;;;;;;8.43;5.18;;;;;;;-145.06;0.00;60892.56;5862143;23;20010;-90
2023/07/02 03:55:58;;;;;;;9.38;5.60;;;;;;;-145.06;0.00;60892.56;5882861;23;20010;-92
2023/07/02 03:59:03;;;;;;;9.55;5.53;;;;;;;-145.06;0.00;60892.56;5883023;23;20030;-91
2023/07/02 04:01:58;;;;;;;9.57;5.15;;;;;;;-145.06;0.00;60892.56;5863802;23;20034;-92
2023/07/02 04:04:42;;;;;;;7.72;4.95;;;;;;;-145.06;0.00;60892.56;5882937;23;20010;-90
2023/07/02 04:07:30;;;;;;;8.18;4.38;;;;;;;-145.06;0.00;60892.56;5882016;23;20010;-91
2023/07/02 04:10:16;;;;;;;7.20;4.35;;;;;;;-145.06;0.00;60892.56;5882632;23;20011;-92
2023/07/02 04:13:05;;;;;;;7.35;4.50;;;;;;;-145.06;0.00;60892.56;5862102;23;20086;-92
2023/07/02 04:16:15;;;;;;;8.32;4.90;;;;;;;-145.06;0.00;60892.56;5882239;23;20061;-91
2023/07/02 04:19:04;;;;;;;7.30;4.82;;;;;;;-145.06;0.00;60892.56;5882720;23;20406;-92
2023/07/02 04:21:47;;;;;;;9.68;5.78;;;;;;;-145.06;0.00;60892.56;5882638;23;20015;-92
2023/07/02 04:24:26;;;;;;;10.40;5.70;;;;;;;-145.06;0.00;60892.56;5861214;23;20003;-92
2023/07/02 04:27:05;;;;;;;9.27;5.53;;;;;;;-145.06;0.00;60892.56;5861435;23;20011;-92
2023/07/02 04:29:45;;;;;;;8.90;5.15;;;;;;;-145.06;0.00;60892.56;5868365;23;20010;-92
2023/07/02 04:32:31;;;;;;;9.98;5.35;;;;;;;-145.06;0.00;60892.56;5868689;23;20010;-93
2023/07/02 04:35:13;;;;;;;8.73;5.13;;;;;;;-145.06;0.00;60892.56;5889425;23;20254;-91
2023/07/02 04:38:00;;;;;;;11.30;5.90;;;;;;;-145.06;0.00;60892.56;5868342;23;20007;-92
2023/07/02 04:40:41;;;;;;;10.93;6.22;;;;;;;18.48;0.00;60892.56;5869256;23;20006;-91
2023/07/02 04:43:23;;;;;;;9.25;5.65;;;;;;;16.93;0.00;60892.56;5868916;23;20392;-93
2023/07/02 04:46:02;;;;;;;7.20;4.80;;;;;;;16.88;0.00;60892.56;5866865;23;20030;-92
2023/07/02 04:48:42;;;;;;;10.02;5.50;;;;;;;16.91;0.00;60892.56;5869357;23;20006;-92
2023/07/02 04:51:29;;;;;;;8.52;5.07;;;;;;;16.91;0.00;60892.56;5868068;23;20007;-93
2023/07/02 04:54:10;;;;;;;8.20;4.88;;;;;;;16.94;0.00;60892.56;5868430;23;20006;-92
2023/07/02 04:56:51;;;;;;;8.55;5.60;;;;;;;16.94;0.00;60892.56;5888827;23;20010;-92
2023/07/02 04:59:42;;;;;;;8.05;5.38;;;;;;;16.96;0.00;60892.56;5888079;23;20010;-91
2023/07/02 05:02:21;;;;;;;9.55;5.70;;;;;;;-145.06;0.00;60892.56;5868234;23;20010;-90
2023/07/02 05:05:02;;;;;;;9.63;5.63;;;;;;;-145.06;0.00;60892.56;5888167;23;20006;-93
2023/07/02 05:07:42;;;;;;;8.77;5.50;;;;;;;17.02;0.00;60892.56;5868184;23;20010;-91
2023/07/02 05:10:28;;;;;;;7.90;5.15;;;;;;;17.01;0.00;60892.56;5868279;23;20003;-92
2023/07/02 05:13:08;;;;;;;8.88;5.43;;;;;;;17.03;0.00;60892.56;5868222;23;20315;-90
2023/07/02 05:15:47;;;;;;;10.07;6.07;;;;;;;-145.06;0.00;60892.56;5869035;23;20034;-91
2023/07/02 05:18:26;;;;;;;10.80;6.20;;;;;;;-145.06;0.00;60892.56;5889405;23;20011;-92
2023/07/02 05:21:11;;;;;;;8.52;5.50;;;;;;;17.11;0.00;60892.56;5889660;23;20077;-92
2023/07/02 05:24:00;;;;;;;;;;;;;;;;;;;;;
2023/07/02 05:26:54;;;;;;;;;;;;;;;;;;;;;
2023/07/02 05:29:51;;;;;;;;;;;;;;;;;;;;;
2023/07/02 05:32:41;;;;;;;8.63;5.15;;;;;;;-145.06;0.00;60892.56;5902548;23;20101;-91
2023/07/02 05:35:20;;;;;;;9.55;5.57;;;;;;;-145.06;0.00;60892.56;5870724;23;20331;-92
2023/07/02 05:38:07;;;;;;;9.45;6.22;;;;;;;-145.06;0.00;60892.56;5890428;23;20010;-92
2023/07/02 05:40:51;;;;;;;9.18;5.38;;;;;;;-145.06;0.00;60892.56;5891356;23;20006;-93
2023/07/02 05:43:32;;;;;;;9.40;5.88;;;;;;;-145.06;0.00;60892.56;5871163;23;20422;-92
2023/07/02 05:46:16;;;;;;;9.90;6.40;;;;;;;21.08;0.00;60892.56;5873094;23;20002;-93
2023/07/02 05:48:56;;;;;;;11.00;6.20;;;;;;;-145.06;0.00;60892.56;5892314;23;20006;-93
2023/07/02 05:51:38;;;;;;;10.18;6.13;;;;;;;187.52;0.00;60892.56;5871249;23;20010;-91
2023/07/02 05:54:18;;;;;;;10.27;5.90;;;;;;;-145.06;0.00;60892.56;5890075;23;20007;-92
2023/07/02 05:56:59;;;;;;;11.68;5.97;;;;;;;-145.06;0.00;60892.56;5889670;23;20366;-92
2023/07/02 05:59:38;;;;;;;10.23;6.00;;;;;;;-145.06;0.00;60892.56;5900616;23;20014;-92
2023/07/02 06:02:24;;;;;;;10.35;6.07;;;;;;;-145.06;0.00;60892.56;5890248;23;20010;-92
2023/07/02 06:05:07;;;;;;;9.18;5.95;;;;;;;-145.06;0.00;60892.56;5870542;23;20006;-92
2023/07/02 06:07:59;;;;;;;;;;;;;;;;;;;;;
2023/07/02 06:10:43;;;;;;;11.60;7.30;;;;;;;-145.06;0.00;60892.56;5900807;23;20006;-93
2023/07/02 06:13:22;;;;;;;8.50;6.00;;;;;;;-145.06;0.00;60892.56;5869904;23;20010;-92
2023/07/02 06:16:04;;;;;;;11.05;5.97;;;;;;;-145.06;0.00;60892.56;5870082;23;20444;-92
2023/07/02 06:18:51;;;;;;;11.68;6.43;;;;;;;-145.06;0.00;60892.56;5870356;23;20010;-94
2023/07/02 06:21:38;;;;;;;13.68;6.50;;;;;;;-145.06;0.00;60892.56;5908510;23;20014;-93
2023/07/02 06:24:17;;;;;;;12.82;7.10;;;;;;;-145.06;0.00;60892.56;5889601;23;20018;-92
2023/07/02 06:27:03;;;;;;;12.48;7.22;;;;;;;-145.06;0.00;60892.56;5870537;23;20010;-94
2023/07/02 06:29:42;;;;;;;12.80;7.28;;;;;;;-145.06;0.00;60892.56;5882345;23;20010;-91
2023/07/02 06:32:21;;;;;;;12.30;7.07;;;;;;;-145.06;0.00;60892.56;5872587;23;20038;-92
2023/07/02 06:35:12;;;;;;;;;;;;;;;;;;;;;
2023/07/02 06:38:00;;;;;;;9.77;5.57;;;;;;;-145.06;0.00;60892.56;5872442;23;20007;-93
2023/07/02 06:40:52;;;;;;;8.70;5.82;;;;;;;17.94;0.00;60892.56;5861533;23;20042;-91
2023/07/02 06:43:36;;;;;;;10.48;6.30;;;;;;;-145.06;0.00;60892.56;5862375;23;20007;-92
2023/07/02 06:46:15;;;;;;;8.82;5.57;;;;;;;-145.06;0.00;60892.56;5862299;23;20003;-92
2023/07/02 06:48:59;;;;;;;8.88;5.72;;;;;;;-145.06;0.00;60892.56;5862139;23;20007;-93
2023/07/02 06:51:47;;;;;;;8.63;5.57;;;;;;;-145.06;0.00;60892.56;5861879;23;20038;-93
2023/07/02 06:54:29;;;;;;;10.05;5.50;;;;;;;-145.06;0.00;60892.56;5882210;23;20003;-94
2023/07/02 06:57:42;;;;;;;9.48;5.75;;;;;;;-145.06;0.00;60892.56;5861178;23;20007;-92
2023/07/02 07:00:24;;;;;;;10.48;5.75;;;;;;;18.19;0.00;60892.56;5860854;23;20007;-92
2023/07/02 07:03:04;;;;;;;7.32;4.93;;;;;;;18.25;0.00;60892.56;5858130;23;20011;-93
2023/07/02 07:05:43;;;;;;;9.45;5.07;;;;;;;-145.06;0.00;60892.56;5859610;23;20003;-93
2023/07/02 07:08:22;;;;;;;9.53;6.10;;;;;;;18.34;0.00;60892.56;5856652;23;20011;-91
2023/07/02 07:11:01;;;;;;;9.48;5.90;;;;;;;18.38;0.00;60892.56;5856858;23;20011;-92
2023/07/02 07:13:40;;;;;;;9.63;6.03;;;;;;;18.40;0.00;60892.56;5858058;23;20007;-93
2023/07/02 07:16:20;;;;;;;9.45;6.10;;;;;;;-145.06;0.00;60892.56;5858223;23;20011;-92
2023/07/02 07:18:59;;;;;;;9.57;6.20;;;;;;;-145.06;0.00;60892.56;5857273;23;20006;-94
2023/07/02 07:21:38;;;;;;;8.77;5.85;;;;;;;-145.06;0.00;60892.56;5858143;23;20011;-93
2023/07/02 07:24:17;;;;;;;10.18;5.80;;;;;;;18.80;0.00;60892.56;5857667;23;20010;-91
2023/07/02 07:26:56;;;;;;;8.80;5.80;;;;;;;-145.06;0.00;60892.56;5878944;23;20007;-91
2023/07/02 07:29:35;;;;;;;9.13;5.55;;;;;;;-145.06;0.00;60892.56;5864480;23;20010;-90
2023/07/02 07:32:14;;;;;;;10.77;6.32;;;;;;;-145.06;0.00;60892.56;5864833;23;20010;-91
2023/07/02 07:35:13;;;;;;;9.27;5.63;;;;;;;-145.06;0.00;60892.56;5885414;23;20010;-92
2023/07/02 07:38:09;;;;;;;8.88;5.90;;;;;;;-145.06;0.00;60892.56;5867854;23;20014;-90
2023/07/02 07:41:13;;;;;;;9.77;6.18;;;;;;;-145.06;0.00;60892.56;5868729;23;20058;-92
2023/07/02 07:43:53;;;;;;;10.68;6.43;;;;;;;-145.06;0.00;60892.56;5867090;23;20319;-93
2023/07/02 07:47:23;;;;;;;8.80;6.05;;;;;;;-145.06;0.00;60892.56;5888247;23;20010;-92
2023/07/02 07:50:09;;;;;;;12.10;6.60;;;;;;;-145.06;0.00;60892.56;5857166;23;20433;-92
2023/07/02 07:52:49;;;;;;;11.50;7.10;;;;;;;-145.06;0.00;60892.56;5869842;23;20010;-90
2023/07/02 07:55:31;;;;;;;9.13;5.67;;;;;;;-145.06;0.00;60892.56;5889757;23;20014;-94
2023/07/02 07:58:09;;;;;;;9.10;5.65;;;;;;;-145.06;0.00;60892.56;5868381;23;20238;-92
2023/07/02 08:00:48;;;;;;;7.75;5.03;;;;;;;-145.06;0.00;60892.56;5889966;23;20002;-91
2023/07/02 08:03:27;;;;;;;7.38;4.97;;;;;;;-145.06;0.00;60892.56;5869553;23;20015;-91
2023/07/02 08:06:06;;;;;;;7.55;4.70;;;;;;;-145.06;0.00;60892.56;5868903;23;20018;-92
2023/07/02 08:08:45;;;;;;;8.93;5.20;;;;;;;-145.06;0.00;60892.56;5890603;23;20011;-90
2023/07/02 08:11:27;;;;;;;8.43;5.07;;;;;;;-145.06;0.00;60892.56;5868947;23;20238;-90
2023/07/02 08:14:09;;;;;;;7.43;4.97;;;;;;;-145.06;0.00;60892.56;5887896;23;20037;-93
2023/07/02 08:16:48;;;;;;;9.02;5.18;;;;;;;-145.06;0.00;60892.56;5866416;23;20003;-91
2023/07/02 08:19:26;;;;;;;8.52;4.95;;;;;;;-145.06;0.00;60892.56;5887225;23;20011;-92
2023/07/02 08:22:06;;;;;;;8.27;4.80;;;;;;;-145.06;0.00;60892.56;5886288;23;20003;-91
2023/07/02 08:24:45;;;;;;;6.63;4.80;;;;;;;-145.06;0.00;60892.56;5866612;23;20006;-92
2023/07/02 08:27:25;;;;;;;9.95;4.88;;;;;;;19.49;0.00;60892.56;5886502;23;20010;-92
2023/07/02 08:30:05;;;;;;;8.02;4.85;;;;;;;-145.06;0.00;60892.56;5878534;23;20137;-93
2023/07/02 08:32:45;;;;;;;7.35;4.70;;;;;;;-145.06;0.00;60892.56;5858628;23;20007;-91
2023/07/02 08:35:30;;;;;;;7.85;5.38;;;;;;;-145.06;0.00;60892.56;5858114;23;20319;-92
2023/07/02 08:38:09;;;;;;;8.13;4.70;;;;;;;-145.06;0.00;60892.56;5858671;23;20015;-92
2023/07/02 08:40:52;;;;;;;7.00;4.32;;;;;;;-145.06;0.00;60892.56;5858282;23;20014;-91
2023/07/02 08:43:31;;;;;;;10.88;5.40;;;;;;;19.73;0.00;60892.56;5859046;23;20089;-93
2023/07/02 08:46:15;;;;;;;9.45;5.45;;;;;;;-145.06;0.00;60892.56;5859701;23;20007;-92
2023/07/02 08:48:56;;;;;;;7.30;4.72;;;;;;;-145.06;0.00;60892.56;5879883;23;20007;-92
2023/07/02 08:51:36;;;;;;;8.82;5.97;;;;;;;-145.06;0.00;60892.56;5858903;23;20510;-93
2023/07/02 08:54:17;;;;;;;9.80;5.88;;;;;;;-145.06;0.00;60892.56;5858430;23;20015;-91
2023/07/02 08:56:57;;;;;;;7.85;5.20;;;;;;;-145.06;0.00;60892.56;5858169;23;20010;-92
2023/07/02 08:59:36;;;;;;;7.68;5.03;;;;;;;-145.06;0.00;60892.56;5858088;23;20003;-92
2023/07/02 09:02:16;;;;;;;7.97;5.40;;;;;;;-145.06;0.00;60892.56;5858991;23;20011;-92
2023/07/02 09:04:59;;;;;;;8.82;5.57;;;;;;;-145.06;0.00;60892.56;5878699;23;20067;-93
2023/07/02 09:07:46;;;;;;;7.28;4.53;;;;;;;-145.06;0.00;60892.56;5858385;23;20007;-92
2023/07/02 09:10:30;;;;;;;9.98;5.25;;;;;;;-145.06;0.00;60892.56;5858383;23;20374;-93
2023/07/02 09:13:12;;;;;;;7.18;5.35;;;;;;;-145.06;0.00;60892.56;5858437;23;20090;-93
2023/07/02 09:15:51;;;;;;;10.02;4.93;;;;;;;19.91;0.00;60892.56;5878699;23;20007;-92
2023/07/02 09:18:30;;;;;;;8.48;5.05;;;;;;;20.43;0.00;60892.56;5857823;23;20331;-93
2023/07/02 09:21:09;;;;;;;8.77;5.47;;;;;;;-145.06;0.00;60892.56;5859362;23;20226;-93
2023/07/02 09:23:48;;;;;;;9.77;5.18;;;;;;;-145.06;0.00;60892.56;5858527;23;20383;-93
2023/07/02 09:26:28;;;;;;;11.13;5.75;;;;;;;-145.06;0.00;60892.56;5858032;23;20086;-93
2023/07/02 09:29:07;;;;;;;9.00;5.15;;;;;;;-145.06;0.00;60892.56;5867514;23;20019;-93
2023/07/02 09:31:47;;;;;;;9.23;5.72;;;;;;;-145.06;0.00;60892.56;5908429;23;20002;-92
2023/07/02 09:34:31;;;;;;;12.73;5.82;;;;;;;-145.06;0.00;60892.56;5888332;23;20002;-93
2023/07/02 09:37:10;;;;;;;8.07;4.93;;;;;;;-145.06;0.00;60892.56;5885218;23;20434;-93
2023/07/02 09:39:54;;;;;;;9.45;5.82;;;;;;;-145.06;0.00;60892.56;5865024;23;20014;-93
2023/07/02 09:42:35;;;;;;;8.38;5.72;;;;;;;20.39;0.00;60892.56;5865235;23;20007;-93
2023/07/02 09:45:14;;;;;;;6.60;4.90;;;;;;;-145.06;0.00;60892.56;5885104;23;20256;-92
2023/07/02 09:47:56;;;;;;;7.47;5.22;;;;;;;-145.06;0.00;60892.56;5885484;23;20413;-91
2023/07/02 09:50:37;;;;;;;8.95;5.18;;;;;;;-145.06;0.00;60892.56;5884218;23;20010;-91
2023/07/02 09:53:17;;;;;;;9.13;5.85;;;;;;;-145.06;0.00;60892.56;5864566;23;20007;-92
2023/07/02 09:55:56;;;;;;;9.77;5.80;;;;;;;-145.06;0.00;60892.56;5864613;23;20006;-92
2023/07/02 09:58:35;;;;;;;8.32;5.43;;;;;;;-145.06;0.00;60892.56;5863657;23;20089;-94
2023/07/02 10:01:14;;;;;;;9.25;5.50;;;;;;;-145.06;0.00;60892.56;5864170;23;20430;-92
2023/07/02 10:03:56;;;;;;;8.00;5.40;;;;;;;-145.06;0.00;60892.56;5885004;23;20085;-92
2023/07/02 10:06:47;;;;;;;9.13;6.10;;;;;;;-145.06;0.00;60892.56;5863358;23;20010;-91
2023/07/02 10:09:42;;;;;;;10.70;5.85;;;;;;;-145.06;0.00;60892.56;5864866;23;20006;-92
2023/07/02 10:12:22;;;;;;;9.52;6.05;;;;;;;-145.06;0.00;60892.56;5886588;23;20002;-93
2023/07/02 10:15:02;;;;;;;9.43;5.50;;;;;;;-145.06;0.00;60892.56;5888382;23;20425;-93
2023/07/02 10:18:40;;;;;;;;;;;;;;;;;;;;;
2023/07/02 10:22:09;;;;;;;;;;;;;;;;;;;;;
2023/07/02 10:39:54;;;;;;;;;;;;;;;;;;;;;
2023/07/02 10:42:51;;;;;;;9.85;4.72;;;;;;;-145.06;0.00;60892.56;5871600;23;20078;-93
2023/07/02 10:49:14;;;;;;;;;;;;;;;;;;;;;
2023/07/02 10:52:58;;;;;;;8.98;5.35;;;;;;;-145.06;0.00;60892.56;5871168;23;20010;-91
2023/07/02 10:55:59;;;;;;;7.45;4.72;;;;;;;-145.06;0.00;60892.56;5861353;23;20003;-93
2023/07/02 10:58:43;;;;;;;7.78;4.90;;;;;;;-145.06;0.00;60892.56;5860138;23;20010;-92
2023/07/02 11:01:45;;;;;;;8.57;5.13;;;;;;;-145.06;0.00;60892.56;5859345;23;20007;-94
2023/07/02 11:04:28;;;;;;;10.85;6.10;;;;;;;-145.06;0.00;60892.56;5840168;23;20078;-92
2023/07/02 11:07:11;;;;;;;9.90;4.90;;;;;;;-145.06;0.00;60892.56;5839677;23;20007;-92
2023/07/02 11:09:53;;;;;;;5.97;4.40;;;;;;;-145.06;0.00;60892.56;5839831;23;20007;-92
2023/07/02 11:12:46;;;;;;;;;;;;;;;;;;;;;
2023/07/02 11:15:39;;;;;;;8.55;4.60;;;;;;;-145.06;0.00;60892.56;5869776;23;20010;-92
2023/07/02 11:18:26;;;;;;;7.35;4.53;;;;;;;-145.06;0.00;60892.56;5860681;23;20010;-93
2023/07/02 11:21:36;;;;;;;6.30;4.13;;;;;;;-145.06;0.00;60892.56;5839394;23;20090;-92
2023/07/02 11:24:17;;;;;;;8.23;4.30;;;;;;;-145.06;0.00;60892.56;5860716;23;20070;-93
2023/07/02 11:27:05;;;;;;;7.30;4.60;;;;;;;-145.06;0.00;60892.56;5860129;23;20007;-93
2023/07/02 11:29:47;;;;;;;6.35;4.75;;;;;;;-145.06;0.00;60892.56;5847342;23;20449;-92
2023/07/02 11:32:26;;;;;;;9.60;5.28;;;;;;;-145.06;0.00;60892.56;5887533;23;20066;-93
2023/07/02 11:35:10;;;;;;;8.25;4.57;;;;;;;21.51;0.00;60892.56;5887288;23;20010;-93
2023/07/02 11:38:14;;;;;;;7.85;4.57;;;;;;;187.52;0.00;60892.56;5867269;23;20014;-92
2023/07/02 11:41:22;;;;;;;;;;;;;;;;;;;;;
2023/07/02 11:44:25;;;;;;;;;;;;;;;;;;;;;
2023/07/02 11:47:22;;;;;;;6.20;4.22;;;;;;;-145.06;0.00;60892.56;5898282;23;20081;-92
2023/07/02 11:50:12;;;;;;;;;;;;;;;;;;;;;
2023/07/02 11:52:50;;;;;;;7.82;4.72;;;;;;;-145.06;0.00;60892.56;5897859;23;20017;-93
2023/07/02 11:55:30;;;;;;;7.40;3.97;;;;;;;-145.06;0.00;60892.56;5866875;23;20014;-93
2023/07/02 11:58:09;;;;;;;5.63;3.75;;;;;;;-145.06;0.00;60892.56;5866283;23;20006;-92
2023/07/02 12:00:48;;;;;;;8.18;4.45;;;;;;;-145.06;0.00;60892.56;5887136;23;20232;-92
2023/07/02 12:03:27;;;;;;;7.50;4.03;;;;;;;-145.06;0.00;60892.56;5887327;23;20410;-93
2023/07/02 12:06:10;;;;;;;6.18;3.83;;;;;;;-145.06;0.00;60892.56;5866498;23;20453;-93
2023/07/02 12:08:50;;;;;;;7.68;4.05;;;;;;;-145.06;0.00;60892.56;5866706;23;20010;-91
2023/07/02 12:11:28;;;;;;;8.93;4.78;;;;;;;-145.06;0.00;60892.56;5896138;23;20010;-93
2023/07/02 12:14:07;;;;;;;6.60;4.32;;;;;;;104.26;0.00;60892.56;5885903;23;20006;-93
2023/07/02 12:16:46;;;;;;;6.18;3.88;;;;;;;-145.06;0.00;60892.56;5886411;23;20010;-92
2023/07/02 12:19:25;;;;;;;6.55;3.83;;;;;;;22.37;0.00;60892.56;5885249;23;20434;-92
2023/07/02 12:22:04;;;;;;;7.60;4.38;;;;;;;-145.06;0.00;60892.56;5886539;23;20011;-92
2023/07/02 12:24:44;;;;;;;7.05;4.75;;;;;;;-145.06;0.00;60892.56;5865839;23;19999;-93
2023/07/02 12:27:23;;;;;;;7.07;4.32;;;;;;;-145.06;0.00;60892.56;5865253;23;20014;-93
2023/07/02 12:30:05;;;;;;;7.18;4.22;;;;;;;-145.06;0.00;60892.56;5878120;23;20006;-93
2023/07/02 12:32:44;;;;;;;6.40;4.32;;;;;;;-145.06;0.00;60892.56;5858107;23;20010;-92
2023/07/02 12:35:24;;;;;;;7.15;4.45;;;;;;;-145.06;0.00;60892.56;5858739;23;20015;-94
2023/07/02 12:38:03;;;;;;;8.43;5.05;;;;;;;-145.06;0.00;60892.56;5869670;23;20011;-93
2023/07/02 12:40:42;;;;;;;5.75;3.83;;;;;;;-145.06;0.00;60892.56;5858560;23;20106;-93
2023/07/02 12:43:21;;;;;;;8.13;4.97;;;;;;;-145.06;0.00;60892.56;5858760;23;20011;-93
2023/07/02 12:46:00;;;;;;;6.68;4.40;;;;;;;-145.06;0.00;60892.56;5867122;23;19991;-94
2023/07/02 12:48:39;;;;;;;6.30;4.28;;;;;;;23.67;0.00;60892.56;5880715;23;20006;-93
2023/07/02 12:51:19;;;;;;;6.28;4.03;;;;;;;-145.06;0.00;60892.56;5869771;23;20011;-93
2023/07/02 12:53:57;;;;;;;7.13;4.15;;;;;;;22.81;0.00;60892.56;5859580;23;20007;-93
2023/07/02 12:56:36;;;;;;;6.60;4.43;;;;;;;-145.06;0.00;60892.56;5860075;23;20308;-92
2023/07/02 12:59:15;;;;;;;8.90;4.57;;;;;;;-145.06;0.00;60892.56;5858700;23;20011;-94
2023/07/02 13:01:54;;;;;;;6.82;3.90;;;;;;;-145.06;0.00;60892.56;5878965;23;20011;-93
2023/07/02 13:04:33;;;;;;;6.70;4.32;;;;;;;-145.06;0.00;60892.56;5858392;23;20426;-93
2023/07/02 13:07:12;;;;;;;8.27;4.18;;;;;;;-145.06;0.00;60892.56;5858647;23;20015;-93
2023/07/02 13:10:13;;;;;;;7.40;4.05;;;;;;;-145.06;0.00;60892.56;5858577;23;20015;-94
2023/07/02 13:12:52;;;;;;;7.03;4.30;;;;;;;-145.06;0.00;60892.56;5880037;23;20010;-92
2023/07/02 13:15:31;;;;;;;5.88;4.28;;;;;;;-145.06;0.00;60892.56;5853104;23;20320;-91
2023/07/02 13:18:10;;;;;;;5.60;3.80;;;;;;;-145.06;0.00;60892.56;5852434;23;20311;-91
2023/07/02 13:20:50;;;;;;;6.07;3.47;;;;;;;-145.06;0.00;60892.56;5862872;23;20014;-92
2023/07/02 13:23:28;;;;;;;5.97;3.67;;;;;;;-145.06;0.00;60892.56;5854973;23;20304;-92
2023/07/02 13:26:07;;;;;;;7.55;4.00;;;;;;;23.46;0.00;60892.56;5855733;23;20482;-91
2023/07/02 13:28:48;;;;;;;6.90;4.40;;;;;;;-145.06;0.00;60892.56;5855716;23;20378;-91
2023/07/02 13:31:27;;;;;;;6.82;4.35;;;;;;;-145.06;0.00;60892.56;5854438;23;20030;-92
2023/07/02 13:34:06;;;;;;;7.75;4.10;;;;;;;-145.06;0.00;60892.56;5853493;23;20030;-91
2023/07/02 13:36:45;;;;;;;6.93;3.90;;;;;;;-145.06;0.00;60892.56;5874304;23;20293;-92
2023/07/02 13:39:24;;;;;;;6.20;4.30;;;;;;;23.59;0.00;60892.56;5855174;23;20089;-92
2023/07/02 13:42:03;;;;;;;5.75;4.05;;;;;;;-145.06;0.00;60892.56;5867155;23;20332;-92
2023/07/02 13:44:43;;;;;;;6.93;4.53;;;;;;;-145.06;0.00;60892.56;5855783;23;20171;-92
2023/07/02 13:47:22;;;;;;;5.80;3.70;;;;;;;-145.06;0.00;60892.56;5857116;23;20037;-92
2023/07/02 13:50:01;;;;;;;6.57;3.97;;;;;;;-145.06;0.00;60892.56;5856418;23;20034;-91